• Join FlightAware (Why Join?)
  • Login
  • US Flag 
10:03AM EDT


 

Airport Tracker/Info


-or-


 

Live Flight TrackerFlight Track Log ✈ N27XP ✈ 28-Feb-2014 ✈ KSOP - KGMU

Flight Track Log - Related Links

Times and Time Zones

All times are in EST time to prevent confusion due to time zone crossing. See the N27XP flight status page for this flight to view local times or setup timezone preferences in your user account.

Time Position Orientation Groundspeed Altitude Reporting Facility
EST Latitude Longitude Course Direction KTS MPH feet Rate Location/Type
01:15PM 35.3017 -79.4361 260° West 275 316 5,800  Level Washington Center
01:16PM 35.2872 -79.5314 260° West 270 311 8,500 1,980 Climbing Washington Center
01:17PM 35.2739 -79.6228 260° West 272 313 10,000 1,200 Climbing Washington Center
01:18PM 35.2589 -79.7328 261° West 303 349 11,000 960 Climbing Washington Center
01:19PM 35.2439 -79.8342 260° West 304 350 12,000 1,200 Climbing Washington Center
01:20PM 35.2272 -79.9489 260° West 318 366 13,600 960 Climbing Washington Center
01:21PM 35.2225 -79.4931 260° West  Level FlightAware Approximate
01:21PM 35.2108 -80.0589 260° West 326 375 14,000  Level Washington Center
01:22PM 35.1922 -80.1792 259° West 335 386 15,300 960 Climbing Washington Center
01:24PM 35.1769 -80.2872 260° West 324 373 16,000 300 Climbing Washington Center
01:25PM 35.1539 -80.4264 259° West 340 391 16,000  Level Atlanta Center
01:26PM 35.1367 -80.5467 260° West 345 397 16,000  Level Atlanta Center
01:27PM 35.1189 -80.6617 259° West 351 404 16,000  Level Atlanta Center
01:28PM 35.1014 -80.7842 260° West 356 410 16,000  Level Atlanta Center
01:29PM 35.0833 -80.8914 258° West 362 417 16,000  Level Atlanta Center
01:30PM 35.0636 -81.0167 259° West 362 417 16,000  Level Atlanta Center
01:31PM 35.0456 -81.1339 259° West 362 417 16,100  Climbing Atlanta Center
01:32PM 35.0275 -81.2564 260° West 367 422 16,100 -60 Level Atlanta Center
01:33PM 35.0092 -81.3761 259° West 367 422 16,000  Descending Atlanta Center
01:34PM 34.9889 -81.5011 259° West 372 428 16,100  Climbing Atlanta Center
01:35PM 34.9683 -81.6233 258° West 372 428 16,000 -60 Descending Atlanta Center
01:36PM 34.9708 -81.7447 271° West 372 428 16,000 -60 Level Atlanta Center
01:37PM 34.9917 -81.8661 282° West 366 421 15,900 -1,260 Descending Atlanta Center
01:38PM 35.0000 -81.9772 275° West 360 414 13,500 -2,460 Descending Atlanta Center
01:39PM 34.9658 -82.0694 246° West 315 362 11,000 -1,500 Descending Atlanta Center
01:40PM 34.8981 -82.1344 218° Southwest 285 328 10,600 -1,620 Descending Atlanta Center
01:41PM 34.8256 -82.1739 204° Southwest 278 320 7,800 -2,760 Descending Atlanta Center
01:42PM 34.7658 -82.2258 216° Southwest 278 320 5,100 -2,400 Descending Atlanta Center
01:43PM 34.7650 -82.3144 269° West 238 274 3,000 -1,320 Descending Atlanta Center
01:44PM 34.7950 -82.3592 309° West 183 211 2,500 -300 Descending Atlanta Center
01:45PM 34.7939 -82.4250 269° West 183 211 2,500 4,200 Level Atlanta Center
01:46PM 34.7986 -82.4883 275° West 183 211 11,000 4,200 Climbing Atlanta Center
01:47PM 34.8058 -82.5514 278° West 183 211 11,000  Level Atlanta Center
01:48PM 34.8058 -82.5514 15° North 183 211 11,000  Level Atlanta Center